sensor_id;sensor_type;location;lat;lon;timestamp;pressure;altitude;pressure_sealevel;temperature;humidity
65376;BME280;51976;47.332;9.404;2023-09-08T00:00:18;93078.34;;;18.58;77.03
65376;BME280;51976;47.332;9.404;2023-09-08T00:02:44;93072.41;;;18.56;77.29
65376;BME280;51976;47.332;9.404;2023-09-08T00:05:09;93083.31;;;18.56;77.09
65376;BME280;51976;47.332;9.404;2023-09-08T00:07:35;93070.63;;;18.51;76.95
65376;BME280;51976;47.332;9.404;2023-09-08T00:10:01;93075.28;;;18.51;76.91
65376;BME280;51976;47.332;9.404;2023-09-08T00:12:26;93085.41;;;18.59;76.87
65376;BME280;51976;47.332;9.404;2023-09-08T00:14:51;93079.44;;;18.66;77.02
65376;BME280;51976;47.332;9.404;2023-09-08T00:17:17;93081.06;;;18.58;77.09
65376;BME280;51976;47.332;9.404;2023-09-08T00:19:42;93081.09;;;18.49;76.97
65376;BME280;51976;47.332;9.404;2023-09-08T00:22:08;93075.31;;;18.42;77.79
65376;BME280;51976;47.332;9.404;2023-09-08T00:24:34;93067.13;;;18.42;77.77
65376;BME280;51976;47.332;9.404;2023-09-08T00:26:59;93072.72;;;18.54;77.53
65376;BME280;51976;47.332;9.404;2023-09-08T00:29:24;93073.38;;;18.51;77.62
65376;BME280;51976;47.332;9.404;2023-09-08T00:31:50;93068.56;;;18.48;77.41
65376;BME280;51976;47.332;9.404;2023-09-08T00:34:15;93068.22;;;18.50;76.84
65376;BME280;51976;47.332;9.404;2023-09-08T00:36:40;93064.72;;;18.41;77.44
65376;BME280;51976;47.332;9.404;2023-09-08T00:39:06;93071.63;;;18.38;77.53
65376;BME280;51976;47.332;9.404;2023-09-08T00:41:31;93064.06;;;18.44;77.39
65376;BME280;51976;47.332;9.404;2023-09-08T00:43:56;93058.13;;;18.50;77.35
65376;BME280;51976;47.332;9.404;2023-09-08T00:46:22;93057.47;;;18.53;76.80
65376;BME280;51976;47.332;9.404;2023-09-08T00:48:47;93057.31;;;18.50;77.09
65376;BME280;51976;47.332;9.404;2023-09-08T00:51:13;93058.13;;;18.50;77.32
65376;BME280;51976;47.332;9.404;2023-09-08T00:53:39;93063.97;;;18.32;77.72
65376;BME280;51976;47.332;9.404;2023-09-08T00:56:04;93060.56;;;18.35;77.91
65376;BME280;51976;47.332;9.404;2023-09-08T00:58:30;93058.59;;;18.44;77.87
65376;BME280;51976;47.332;9.404;2023-09-08T01:00:56;93059.56;;;18.48;77.86
65376;BME280;51976;47.332;9.404;2023-09-08T01:03:23;93062.81;;;18.33;78.56
65376;BME280;51976;47.332;9.404;2023-09-08T01:05:49;93058.03;;;18.30;78.77
65376;BME280;51976;47.332;9.404;2023-09-08T01:08:15;93049.53;;;18.22;79.01
65376;BME280;51976;47.332;9.404;2023-09-08T01:10:41;93051.75;;;18.29;79.05
65376;BME280;51976;47.332;9.404;2023-09-08T01:13:07;93042.13;;;18.23;78.53
65376;BME280;51976;47.332;9.404;2023-09-08T01:15:33;93058.63;;;18.35;78.38
65376;BME280;51976;47.332;9.404;2023-09-08T01:17:58;93062.84;;;18.24;78.15
65376;BME280;51976;47.332;9.404;2023-09-08T01:20:42;93050.81;;;18.25;78.32
65376;BME280;51976;47.332;9.404;2023-09-08T01:23:18;93047.28;;;18.16;78.69
65376;BME280;51976;47.332;9.404;2023-09-08T01:25:55;93048.56;;;18.10;78.74
65376;BME280;51976;47.332;9.404;2023-09-08T01:28:22;93049.53;;;18.14;78.68
65376;BME280;51976;47.332;9.404;2023-09-08T01:30:49;93055.94;;;18.09;78.89
65376;BME280;51976;47.332;9.404;2023-09-08T01:33:15;93051.59;;;18.17;78.76
65376;BME280;51976;47.332;9.404;2023-09-08T01:35:41;93047.91;;;18.21;78.62
65376;BME280;51976;47.332;9.404;2023-09-08T01:38:07;93043.09;;;18.27;78.28
65376;BME280;51976;47.332;9.404;2023-09-08T01:40:32;93044.53;;;18.24;78.36
65376;BME280;51976;47.332;9.404;2023-09-08T01:42:57;93040.38;;;18.27;78.34
65376;BME280;51976;47.332;9.404;2023-09-08T01:45:23;93038.78;;;18.17;77.91
65376;BME280;51976;47.332;9.404;2023-09-08T01:47:48;93048.09;;;18.16;78.23
65376;BME280;51976;47.332;9.404;2023-09-08T01:50:14;93037.97;;;18.17;78.59
65376;BME280;51976;47.332;9.404;2023-09-08T01:52:40;93043.59;;;18.20;78.34
65376;BME280;51976;47.332;9.404;2023-09-08T01:55:05;93045.34;;;18.25;77.94
65376;BME280;51976;47.332;9.404;2023-09-08T01:57:32;93042.78;;;18.20;78.08
65376;BME280;51976;47.332;9.404;2023-09-08T01:59:58;93047.91;;;18.13;78.70
65376;BME280;51976;47.332;9.404;2023-09-08T02:02:23;93036.69;;;18.06;79.21
65376;BME280;51976;47.332;9.404;2023-09-08T02:04:48;93044.38;;;18.12;79.31
65376;BME280;51976;47.332;9.404;2023-09-08T02:07:14;93043.59;;;18.12;79.35
65376;BME280;51976;47.332;9.404;2023-09-08T02:09:39;93046.31;;;18.12;79.19
65376;BME280;51976;47.332;9.404;2023-09-08T02:12:05;93043.41;;;18.17;79.29
65376;BME280;51976;47.332;9.404;2023-09-08T02:14:30;93043.41;;;18.17;78.75
65376;BME280;51976;47.332;9.404;2023-09-08T02:16:56;93041.97;;;18.11;79.20
65376;BME280;51976;47.332;9.404;2023-09-08T02:19:22;93040.22;;;18.15;78.99
65376;BME280;51976;47.332;9.404;2023-09-08T02:21:47;93036.06;;;18.09;78.98
65376;BME280;51976;47.332;9.404;2023-09-08T02:24:12;93039.41;;;18.06;78.89
65376;BME280;51976;47.332;9.404;2023-09-08T02:26:38;93032.03;;;18.06;79.16
65376;BME280;51976;47.332;9.404;2023-09-08T02:29:04;93031.06;;;18.11;78.91
65376;BME280;51976;47.332;9.404;2023-09-08T02:31:29;93029.97;;;18.03;79.11
65376;BME280;51976;47.332;9.404;2023-09-08T02:33:55;93036.56;;;18.02;79.12
65376;BME280;51976;47.332;9.404;2023-09-08T02:36:20;93037.53;;;17.89;79.34
65376;BME280;51976;47.332;9.404;2023-09-08T02:38:51;93037.38;;;17.85;79.72
65376;BME280;51976;47.332;9.404;2023-09-08T02:41:16;93032.72;;;17.86;79.94
65376;BME280;51976;47.332;9.404;2023-09-08T02:43:42;93035.13;;;17.87;79.47
65376;BME280;51976;47.332;9.404;2023-09-08T02:46:07;93038.97;;;17.86;79.94
65376;BME280;51976;47.332;9.404;2023-09-08T02:48:34;93028.22;;;17.99;79.32
65376;BME280;51976;47.332;9.404;2023-09-08T02:51:00;93041.22;;;17.93;79.97
65376;BME280;51976;47.332;9.404;2023-09-08T02:53:25;93031.91;;;17.94;79.84
65376;BME280;51976;47.332;9.404;2023-09-08T02:55:56;93035.13;;;18.05;79.35
65376;BME280;51976;47.332;9.404;2023-09-08T02:58:22;93026.44;;;18.03;79.49
65376;BME280;51976;47.332;9.404;2023-09-08T03:00:48;93036.72;;;17.88;79.60
65376;BME280;51976;47.332;9.404;2023-09-08T03:03:13;93031.59;;;17.78;80.46
65376;BME280;51976;47.332;9.404;2023-09-08T03:05:39;93042.81;;;17.85;80.33
65376;BME280;51976;47.332;9.404;2023-09-08T03:08:05;93036.09;;;17.91;79.67
65376;BME280;51976;47.332;9.404;2023-09-08T03:10:31;93032.41;;;17.87;79.90
65376;BME280;51976;47.332;9.404;2023-09-08T03:13:02;93028.53;;;17.88;79.30
65376;BME280;51976;47.332;9.404;2023-09-08T03:15:28;93033.50;;;17.86;79.67
65376;BME280;51976;47.332;9.404;2023-09-08T03:17:57;93036.09;;;17.83;79.53
65376;BME280;51976;47.332;9.404;2023-09-08T03:20:26;93031.28;;;17.88;79.55
65376;BME280;51976;47.332;9.404;2023-09-08T03:22:52;93031.91;;;17.85;79.83
65376;BME280;51976;47.332;9.404;2023-09-08T03:25:17;93030.31;;;17.67;80.82
65376;BME280;51976;47.332;9.404;2023-09-08T03:27:42;93041.09;;;17.72;81.10
65376;BME280;51976;47.332;9.404;2023-09-08T03:30:08;93032.38;;;17.79;80.44
65376;BME280;51976;47.332;9.404;2023-09-08T03:32:34;93031.47;;;17.75;80.80
65376;BME280;51976;47.332;9.404;2023-09-08T03:34:59;93029.53;;;17.75;80.61
65376;BME280;51976;47.332;9.404;2023-09-08T03:37:24;93023.09;;;17.80;80.12
65376;BME280;51976;47.332;9.404;2023-09-08T03:39:52;93024.06;;;17.84;79.53
65376;BME280;51976;47.332;9.404;2023-09-08T03:42:17;93033.06;;;17.76;79.52
65376;BME280;51976;47.332;9.404;2023-09-08T03:44:43;93026.59;;;17.63;79.66
65376;BME280;51976;47.332;9.404;2023-09-08T03:47:08;93032.84;;;17.55;80.83
65376;BME280;51976;47.332;9.404;2023-09-08T03:49:35;93027.09;;;17.56;80.73
65376;BME280;51976;47.332;9.404;2023-09-08T03:52:01;93029.16;;;17.59;80.83
65376;BME280;51976;47.332;9.404;2023-09-08T03:54:26;93029.16;;;17.59;80.39
65376;BME280;51976;47.332;9.404;2023-09-08T03:56:51;93029.34;;;17.63;79.98
65376;BME280;51976;47.332;9.404;2023-09-08T03:59:17;93023.13;;;17.71;79.87
65376;BME280;51976;47.332;9.404;2023-09-08T04:01:42;93017.81;;;17.66;79.82
65376;BME280;51976;47.332;9.404;2023-09-08T04:04:07;93022.47;;;17.74;79.61
65376;BME280;51976;47.332;9.404;2023-09-08T04:06:33;93032.38;;;17.79;79.56
65376;BME280;51976;47.332;9.404;2023-09-08T04:08:59;93030.00;;;17.77;80.01
65376;BME280;51976;47.332;9.404;2023-09-08T04:11:24;93037.03;;;17.78;80.12
65376;BME280;51976;47.332;9.404;2023-09-08T04:13:51;93030.00;;;17.77;79.60
65376;BME280;51976;47.332;9.404;2023-09-08T04:16:16;93027.28;;;17.77;79.84
65376;BME280;51976;47.332;9.404;2023-09-08T04:18:41;93029.34;;;17.80;79.86
65376;BME280;51976;47.332;9.404;2023-09-08T04:21:07;93034.81;;;17.80;79.89
65376;BME280;51976;47.332;9.404;2023-09-08T04:23:33;93030.00;;;17.77;79.74
65376;BME280;51976;47.332;9.404;2023-09-08T04:25:58;93026.31;;;17.73;79.73
65376;BME280;51976;47.332;9.404;2023-09-08T04:28:24;93035.78;;;17.67;79.29
65376;BME280;51976;47.332;9.404;2023-09-08T04:30:49;93028.03;;;17.60;79.33
65376;BME280;51976;47.332;9.404;2023-09-08T04:33:15;93038.78;;;17.57;79.63
65376;BME280;51976;47.332;9.404;2023-09-08T04:35:40;93038.16;;;17.60;79.63
65376;BME280;51976;47.332;9.404;2023-09-08T04:38:07;93043.28;;;17.62;79.77
65376;BME280;51976;47.332;9.404;2023-09-08T04:40:32;93046.22;;;17.65;79.49
65376;BME280;51976;47.332;9.404;2023-09-08T04:42:57;93051.34;;;17.67;79.43
65376;BME280;51976;47.332;9.404;2023-09-08T04:45:23;93052.94;;;17.68;79.14
65376;BME280;51976;47.332;9.404;2023-09-08T04:47:48;93048.28;;;17.68;78.72
65376;BME280;51976;47.332;9.404;2023-09-08T04:50:14;93057.22;;;17.60;78.85
65376;BME280;51976;47.332;9.404;2023-09-08T04:52:40;93055.94;;;17.57;79.03
65376;BME280;51976;47.332;9.404;2023-09-08T04:55:06;93054.66;;;17.55;79.47
65376;BME280;51976;47.332;9.404;2023-09-08T04:57:31;93060.44;;;17.45;80.24
65376;BME280;51976;47.332;9.404;2023-09-08T04:59:56;93052.56;;;17.52;79.92
65376;BME280;51976;47.332;9.404;2023-09-08T05:02:22;93054.81;;;17.58;79.37
65376;BME280;51976;47.332;9.404;2023-09-08T05:04:47;93046.66;;;17.50;79.63
65376;BME280;51976;47.332;9.404;2023-09-08T05:07:13;93055.31;;;17.60;79.49
65376;BME280;51976;47.332;9.404;2023-09-08T05:09:38;93059.50;;;17.84;80.65
65376;BME280;51976;47.332;9.404;2023-09-08T05:12:03;93063.69;;;17.99;79.59
65376;BME280;51976;47.332;9.404;2023-09-08T05:14:29;93063.84;;;17.76;79.21
65376;BME280;51976;47.332;9.404;2023-09-08T05:16:54;93060.09;;;17.55;79.79
65376;BME280;51976;47.332;9.404;2023-09-08T05:19:21;93058.19;;;17.47;80.19
65376;BME280;51976;47.332;9.404;2023-09-08T05:21:50;93070.22;;;17.63;80.40
65376;BME280;51976;47.332;9.404;2023-09-08T05:24:16;93065.91;;;17.79;79.59
65376;BME280;51976;47.332;9.404;2023-09-08T05:26:41;93059.66;;;17.87;79.12
65376;BME280;51976;47.332;9.404;2023-09-08T05:29:07;93068.81;;;17.74;79.17
65376;BME280;51976;47.332;9.404;2023-09-08T05:31:32;93065.75;;;17.84;79.09
65376;BME280;51976;47.332;9.404;2023-09-08T05:33:58;93068.81;;;17.83;79.20
65376;BME280;51976;47.332;9.404;2023-09-08T05:36:24;93073.78;;;17.98;78.79
65376;BME280;51976;47.332;9.404;2023-09-08T05:38:49;93067.97;;;18.08;78.51
65376;BME280;51976;47.332;9.404;2023-09-08T05:41:15;93072.16;;;18.14;78.22
65376;BME280;51976;47.332;9.404;2023-09-08T05:43:40;93072.63;;;18.08;78.28
65376;BME280;51976;47.332;9.404;2023-09-08T05:46:05;93081.31;;;18.10;78.51
65376;BME280;51976;47.332;9.404;2023-09-08T05:48:31;93055.34;;;17.95;78.91
65376;BME280;51976;47.332;9.404;2023-09-08T05:50:56;93073.78;;;17.89;79.83
65376;BME280;51976;47.332;9.404;2023-09-08T05:53:22;93078.75;;;17.87;80.20
65376;BME280;51976;47.332;9.404;2023-09-08T05:55:47;93068.97;;;17.95;79.89
65376;BME280;51976;47.332;9.404;2023-09-08T05:58:13;93078.59;;;18.01;79.76
65376;BME280;51976;47.332;9.404;2023-09-08T06:00:38;93089.03;;;17.99;80.22
65376;BME280;51976;47.332;9.404;2023-09-08T06:03:04;93085.34;;;18.04;80.26
65376;BME280;51976;47.332;9.404;2023-09-08T06:05:31;93079.84;;;18.21;79.75
65376;BME280;51976;47.332;9.404;2023-09-08T06:07:56;93084.03;;;18.27;79.42
65376;BME280;51976;47.332;9.404;2023-09-08T06:10:22;93078.06;;;18.34;79.52
65376;BME280;51976;47.332;9.404;2023-09-08T06:12:47;93082.22;;;18.40;79.25
65376;BME280;51976;47.332;9.404;2023-09-08T06:15:16;93081.78;;;18.29;80.01
65376;BME280;51976;47.332;9.404;2023-09-08T06:17:42;93086.72;;;18.44;79.44
65376;BME280;51976;47.332;9.404;2023-09-08T06:20:09;93079.78;;;18.64;79.21
65376;BME280;51976;47.332;9.404;2023-09-08T06:22:34;93087.59;;;18.83;78.57
65376;BME280;51976;47.332;9.404;2023-09-08T06:25:01;93088.00;;;19.02;78.08
65376;BME280;51976;47.332;9.404;2023-09-08T06:27:27;93082.34;;;19.07;78.40
65376;BME280;51976;47.332;9.404;2023-09-08T06:29:52;93081.84;;;19.14;78.75
65376;BME280;51976;47.332;9.404;2023-09-08T06:32:18;93075.97;;;19.24;78.64
65376;BME280;51976;47.332;9.404;2023-09-08T06:34:45;93087.25;;;19.52;78.34
65376;BME280;51976;47.332;9.404;2023-09-08T06:37:11;93074.50;;;19.65;78.00
65376;BME280;51976;47.332;9.404;2023-09-08T06:39:37;93084.34;;;19.78;77.58
65376;BME280;51976;47.332;9.404;2023-09-08T06:42:03;93077.88;;;19.82;77.59
65376;BME280;51976;47.332;9.404;2023-09-08T06:44:29;93082.50;;;19.90;76.83
65376;BME280;51976;47.332;9.404;2023-09-08T06:46:55;93082.22;;;20.04;76.65
65376;BME280;51976;47.332;9.404;2023-09-08T06:49:22;93078.88;;;20.40;75.64
65376;BME280;51976;47.332;9.404;2023-09-08T06:51:48;93082.56;;;20.56;74.51
65376;BME280;51976;47.332;9.404;2023-09-08T06:54:14;93090.47;;;20.70;73.89
65376;BME280;51976;47.332;9.404;2023-09-08T06:56:40;93082.38;;;20.86;73.82
65376;BME280;51976;47.332;9.404;2023-09-08T06:59:05;93075.66;;;21.08;72.93
65376;BME280;51976;47.332;9.404;2023-09-08T07:01:32;93080.31;;;21.28;72.21
65376;BME280;51976;47.332;9.404;2023-09-08T07:03:58;93085.66;;;21.49;71.75
65376;BME280;51976;47.332;9.404;2023-09-08T07:06:24;93075.38;;;21.58;71.21
65376;BME280;51976;47.332;9.404;2023-09-08T07:08:51;93076.59;;;21.85;70.68
65376;BME280;51976;47.332;9.404;2023-09-08T07:11:17;93079.22;;;21.69;70.75
65376;BME280;51976;47.332;9.404;2023-09-08T07:13:42;93077.69;;;21.96;70.55
65376;BME280;51976;47.332;9.404;2023-09-08T07:16:08;93073.91;;;22.13;69.69
65376;BME280;51976;47.332;9.404;2023-09-08T07:18:33;93080.13;;;22.38;68.96
65376;BME280;51976;47.332;9.404;2023-09-08T07:21:02;93080.44;;;22.64;68.27
65376;BME280;51976;47.332;9.404;2023-09-08T07:23:28;93074.78;;;22.73;67.50
65376;BME280;51976;47.332;9.404;2023-09-08T07:25:53;93073.25;;;22.87;67.27
65376;BME280;51976;47.332;9.404;2023-09-08T07:28:19;93073.78;;;23.09;66.62
65376;BME280;51976;47.332;9.404;2023-09-08T07:30:45;93077.75;;;23.27;66.00
65376;BME280;51976;47.332;9.404;2023-09-08T07:33:10;93080.16;;;23.44;65.30
65376;BME280;51976;47.332;9.404;2023-09-08T07:35:38;93079.81;;;23.46;65.30
65376;BME280;51976;47.332;9.404;2023-09-08T07:38:04;93087.19;;;23.42;65.55
65376;BME280;51976;47.332;9.404;2023-09-08T07:40:31;93077.94;;;23.50;65.46
65376;BME280;51976;47.332;9.404;2023-09-08T07:42:56;93071.91;;;23.76;64.98
65376;BME280;51976;47.332;9.404;2023-09-08T07:45:22;93085.41;;;24.00;63.62
65376;BME280;51976;47.332;9.404;2023-09-08T07:47:48;93077.16;;;24.19;62.64
65376;BME280;51976;47.332;9.404;2023-09-08T07:50:23;93078.78;;;24.20;62.43
65376;BME280;51976;47.332;9.404;2023-09-08T07:52:50;93078.22;;;23.95;63.26
65376;BME280;51976;47.332;9.404;2023-09-08T07:55:16;93077.59;;;23.67;64.55
65376;BME280;51976;47.332;9.404;2023-09-08T07:57:43;93079.78;;;24.12;62.80
65376;BME280;51976;47.332;9.404;2023-09-08T08:00:09;93080.53;;;24.48;61.98
65376;BME280;51976;47.332;9.404;2023-09-08T08:02:43;93074.38;;;24.35;61.98
65376;BME280;51976;47.332;9.404;2023-09-08T08:05:09;93077.50;;;24.53;62.08
65376;BME280;51976;47.332;9.404;2023-09-08T08:07:35;93074.81;;;24.56;62.15
65376;BME280;51976;47.332;9.404;2023-09-08T08:10:01;93074.50;;;24.81;61.45
65376;BME280;51976;47.332;9.404;2023-09-08T08:12:27;93070.56;;;25.01;60.93
65376;BME280;51976;47.332;9.404;2023-09-08T08:14:52;93067.44;;;25.25;60.41
65376;BME280;51976;47.332;9.404;2023-09-08T08:17:17;93077.75;;;25.28;60.59
65376;BME280;51976;47.332;9.404;2023-09-08T08:19:45;93069.66;;;25.16;61.06
65376;BME280;51976;47.332;9.404;2023-09-08T08:22:10;93071.66;;;25.19;61.39
65376;BME280;51976;47.332;9.404;2023-09-08T08:24:36;93064.94;;;25.40;60.72
65376;BME280;51976;47.332;9.404;2023-09-08T08:27:01;93065.72;;;25.40;60.97
65376;BME280;51976;47.332;9.404;2023-09-08T08:29:28;93073.13;;;25.59;60.56
65376;BME280;51976;47.332;9.404;2023-09-08T08:31:54;93071.75;;;25.72;60.54
65376;BME280;51976;47.332;9.404;2023-09-08T08:34:19;93079.25;;;25.72;60.11
65376;BME280;51976;47.332;9.404;2023-09-08T08:36:44;93086.94;;;25.36;60.89
65376;BME280;51976;47.332;9.404;2023-09-08T08:39:10;93069.00;;;25.72;60.32
65376;BME280;51976;47.332;9.404;2023-09-08T08:41:35;93071.75;;;25.72;60.41
65376;BME280;51976;47.332;9.404;2023-09-08T08:44:08;93072.97;;;25.25;61.89
65376;BME280;51976;47.332;9.404;2023-09-08T08:46:36;93072.03;;;24.95;62.65
65376;BME280;51976;47.332;9.404;2023-09-08T08:49:05;93074.78;;;24.95;62.79
65376;BME280;51976;47.332;9.404;2023-09-08T08:51:51;93077.19;;;24.77;63.45
65376;BME280;51976;47.332;9.404;2023-09-08T08:54:17;93072.28;;;24.90;62.82
65376;BME280;51976;47.332;9.404;2023-09-08T08:56:43;93067.75;;;24.98;62.94
65376;BME280;51976;47.332;9.404;2023-09-08T08:59:09;93070.28;;;24.87;63.52
65376;BME280;51976;47.332;9.404;2023-09-08T09:01:36;93077.03;;;24.70;63.31
65376;BME280;51976;47.332;9.404;2023-09-08T09:04:04;93068.97;;;25.00;62.87
65376;BME280;51976;47.332;9.404;2023-09-08T09:06:32;93071.03;;;24.64;64.09
65376;BME280;51976;47.332;9.404;2023-09-08T09:09:01;93071.31;;;25.44;61.91
65376;BME280;51976;47.332;9.404;2023-09-08T09:11:28;93063.38;;;25.19;62.00
65376;BME280;51976;47.332;9.404;2023-09-08T09:13:53;93064.78;;;25.55;61.39
65376;BME280;51976;47.332;9.404;2023-09-08T09:16:19;93057.88;;;25.19;62.75
65376;BME280;51976;47.332;9.404;2023-09-08T09:18:55;93066.38;;;24.69;64.86
65376;BME280;51976;47.332;9.404;2023-09-08T09:21:21;93060.53;;;24.51;65.31
65376;BME280;51976;47.332;9.404;2023-09-08T09:23:46;93057.78;;;24.51;64.99
65376;BME280;51976;47.332;9.404;2023-09-08T09:26:23;93059.91;;;24.80;63.94
65376;BME280;51976;47.332;9.404;2023-09-08T09:28:49;93055.91;;;24.97;63.37
65376;BME280;51976;47.332;9.404;2023-09-08T09:31:14;93051.38;;;25.80;61.07
65376;BME280;51976;47.332;9.404;2023-09-08T09:33:40;93049.94;;;26.16;60.14
65376;BME280;51976;47.332;9.404;2023-09-08T09:36:05;93046.78;;;26.18;60.44
65376;BME280;51976;47.332;9.404;2023-09-08T09:38:34;93044.69;;;25.81;60.96
65376;BME280;51976;47.332;9.404;2023-09-08T09:41:00;93057.50;;;24.98;63.02
65376;BME280;51976;47.332;9.404;2023-09-08T09:43:27;93052.50;;;24.84;63.49
65376;BME280;51976;47.332;9.404;2023-09-08T09:45:53;93049.31;;;24.82;63.74
65376;BME280;51976;47.332;9.404;2023-09-08T09:48:20;93054.22;;;24.92;63.71
65376;BME280;51976;47.332;9.404;2023-09-08T09:50:46;93055.53;;;25.21;62.11
65376;BME280;51976;47.332;9.404;2023-09-08T09:53:13;93052.16;;;24.86;63.63
65376;BME280;51976;47.332;9.404;2023-09-08T09:55:44;93056.97;;;25.12;62.67
65376;BME280;51976;47.332;9.404;2023-09-08T09:58:10;93057.78;;;25.12;62.93
65376;BME280;51976;47.332;9.404;2023-09-08T10:00:36;93050.59;;;25.08;62.47
65376;BME280;51976;47.332;9.404;2023-09-08T10:03:04;93055.75;;;24.90;63.10
65376;BME280;51976;47.332;9.404;2023-09-08T10:05:30;93055.38;;;25.11;63.27
65376;BME280;51976;47.332;9.404;2023-09-08T10:07:55;93050.47;;;25.01;62.86
65376;BME280;51976;47.332;9.404;2023-09-08T10:10:21;93060.28;;;24.79;63.01
65376;BME280;51976;47.332;9.404;2023-09-08T10:12:54;93053.88;;;25.17;62.92
65376;BME280;51976;47.332;9.404;2023-09-08T10:15:24;93049.66;;;25.23;62.27
65376;BME280;51976;47.332;9.404;2023-09-08T10:17:56;93055.69;;;24.86;62.61
65376;BME280;51976;47.332;9.404;2023-09-08T10:20:26;93050.56;;;24.66;63.24
65376;BME280;51976;47.332;9.404;2023-09-08T10:22:55;93046.16;;;24.42;64.39
65376;BME280;51976;47.332;9.404;2023-09-08T10:25:24;93051.94;;;24.75;62.21
65376;BME280;51976;47.332;9.404;2023-09-08T10:27:50;93052.44;;;24.81;62.64
65376;BME280;51976;47.332;9.404;2023-09-08T10:30:16;93051.47;;;24.92;62.32
65376;BME280;51976;47.332;9.404;2023-09-08T10:32:42;93044.41;;;25.14;61.67
65376;BME280;51976;47.332;9.404;2023-09-08T10:35:09;93044.22;;;25.04;61.16
65376;BME280;51976;47.332;9.404;2023-09-08T10:37:35;93045.91;;;24.89;60.72
65376;BME280;51976;47.332;9.404;2023-09-08T10:40:21;93049.22;;;24.98;60.98
65376;BME280;51976;47.332;9.404;2023-09-08T10:42:47;93038.13;;;25.40;59.58
65376;BME280;51976;47.332;9.404;2023-09-08T10:45:18;93031.94;;;25.24;59.93
65376;BME280;51976;47.332;9.404;2023-09-08T10:47:57;93035.50;;;25.24;59.70
65376;BME280;51976;47.332;9.404;2023-09-08T10:50:31;93046.03;;;25.19;58.83
65376;BME280;51976;47.332;9.404;2023-09-08T10:53:11;93049.88;;;25.11;59.68
65376;BME280;51976;47.332;9.404;2023-09-08T10:55:40;93044.97;;;24.81;59.81
65376;BME280;51976;47.332;9.404;2023-09-08T10:58:10;93035.50;;;25.02;59.77
65376;BME280;51976;47.332;9.404;2023-09-08T11:00:45;93040.66;;;25.03;59.19
65376;BME280;51976;47.332;9.404;2023-09-08T11:03:11;93036.22;;;25.21;58.31
65376;BME280;51976;47.332;9.404;2023-09-08T11:05:37;93036.72;;;25.27;58.30
65376;BME280;51976;47.332;9.404;2023-09-08T11:08:02;93038.09;;;25.14;58.95
65376;BME280;51976;47.332;9.404;2023-09-08T11:10:29;93036.13;;;25.37;59.51
65376;BME280;51976;47.332;9.404;2023-09-08T11:12:55;93037.31;;;25.13;58.22
65376;BME280;51976;47.332;9.404;2023-09-08T11:15:21;93031.03;;;25.16;58.86
65376;BME280;51976;47.332;9.404;2023-09-08T11:17:47;93024.75;;;25.19;58.88
65376;BME280;51976;47.332;9.404;2023-09-08T11:20:16;93031.72;;;25.10;59.67
65376;BME280;51976;47.332;9.404;2023-09-08T11:22:43;93033.63;;;25.06;59.24
65376;BME280;51976;47.332;9.404;2023-09-08T11:25:09;93030.06;;;25.05;58.89
65376;BME280;51976;47.332;9.404;2023-09-08T11:27:37;93033.25;;;25.07;59.18
65376;BME280;51976;47.332;9.404;2023-09-08T11:30:06;93040.66;;;25.26;58.67
65376;BME280;51976;47.332;9.404;2023-09-08T11:32:33;93031.16;;;25.50;58.01
65376;BME280;51976;47.332;9.404;2023-09-08T11:35:05;93028.72;;;25.68;57.38
65376;BME280;51976;47.332;9.404;2023-09-08T11:37:40;93034.16;;;25.38;57.45
65376;BME280;51976;47.332;9.404;2023-09-08T11:40:07;93041.38;;;25.23;57.75
65376;BME280;51976;47.332;9.404;2023-09-08T11:42:39;93028.81;;;25.25;58.63
65376;BME280;51976;47.332;9.404;2023-09-08T11:45:15;93024.28;;;25.37;58.35
65376;BME280;51976;47.332;9.404;2023-09-08T11:47:47;93030.91;;;25.32;58.97
65376;BME280;51976;47.332;9.404;2023-09-08T11:50:15;93026.34;;;25.43;58.29
65376;BME280;51976;47.332;9.404;2023-09-08T11:52:46;93007.78;;;25.40;57.62
65376;BME280;51976;47.332;9.404;2023-09-08T11:55:13;93024.94;;;25.30;58.25
65376;BME280;51976;47.332;9.404;2023-09-08T11:57:40;93028.94;;;25.33;58.53
65376;BME280;51976;47.332;9.404;2023-09-08T12:00:07;93031.75;;;25.36;58.27
65376;BME280;51976;47.332;9.404;2023-09-08T12:02:37;93032.97;;;25.39;58.46
65376;BME280;51976;47.332;9.404;2023-09-08T12:05:03;93026.38;;;25.47;58.06
65376;BME280;51976;47.332;9.404;2023-09-08T12:07:29;93025.34;;;25.55;58.33
65376;BME280;51976;47.332;9.404;2023-09-08T12:09:55;93018.22;;;25.54;58.26
65376;BME280;51976;47.332;9.404;2023-09-08T12:12:20;93027.72;;;25.56;58.23
65376;BME280;51976;47.332;9.404;2023-09-08T12:14:46;93019.06;;;25.58;58.51
65376;BME280;51976;47.332;9.404;2023-09-08T12:17:12;93019.66;;;25.67;58.06
65376;BME280;51976;47.332;9.404;2023-09-08T12:19:42;93013.38;;;25.70;57.58
65376;BME280;51976;47.332;9.404;2023-09-08T12:22:07;93019.88;;;25.58;57.80
65376;BME280;51976;47.332;9.404;2023-09-08T12:24:58;93017.44;;;25.53;58.06
65376;BME280;51976;47.332;9.404;2023-09-08T12:27:27;93014.50;;;25.66;57.79
65376;BME280;51976;47.332;9.404;2023-09-08T12:30:00;93011.25;;;25.86;57.08
65376;BME280;51976;47.332;9.404;2023-09-08T12:32:26;93007.06;;;26.00;56.75
65376;BME280;51976;47.332;9.404;2023-09-08T12:34:55;93010.13;;;25.91;57.56
65376;BME280;51976;47.332;9.404;2023-09-08T12:37:24;93008.91;;;25.88;57.05
65376;BME280;51976;47.332;9.404;2023-09-08T12:39:52;93015.03;;;26.05;57.00
65376;BME280;51976;47.332;9.404;2023-09-08T12:42:18;93010.22;;;25.98;56.96
65376;BME280;51976;47.332;9.404;2023-09-08T12:44:45;93016.53;;;25.72;56.99
65376;BME280;51976;47.332;9.404;2023-09-08T12:47:11;93008.38;;;25.79;57.14
65376;BME280;51976;47.332;9.404;2023-09-08T12:49:40;93014.25;;;25.78;56.69
65376;BME280;51976;47.332;9.404;2023-09-08T12:52:06;93008.53;;;25.90;57.35
65376;BME280;51976;47.332;9.404;2023-09-08T12:54:32;93009.66;;;25.85;57.01
65376;BME280;51976;47.332;9.404;2023-09-08T12:56:57;93007.09;;;26.03;56.27